Time;durP1;ratioP1;P1;durP2;ratioP2;P2;SDS_P1;SDS_P2;PMS_P1;PMS_P2;Temp;Humidity;BMP_temperature;BMP_pressure;BME280_temperature;BME280_humidity;BME280_pressure;Samples;Min_cycle;Max_cycle;Signal;HPM_P1;HPM_P2
2022/01/23 06:01:15;;;;;;;7.95;5.35;;;;;;;-2.52;58.75;94812.57;823113;71;32674;-78
2022/01/23 06:16:14;;;;;;;5.72;5.10;;;;;;;-2.39;58.22;94833.13;827677;71;32677;-78
2022/01/23 06:31:14;;;;;;;7.17;6.35;;;;;;;-1.06;55.40;94846.12;826852;71;32700;-75
2022/01/23 06:46:12;;;;;;;11.12;6.10;;;;;;;0.43;53.42;94835.21;832985;71;32772;-78
2022/01/23 07:01:15;;;;;;;9.20;5.85;;;;;;;1.91;50.27;94832.51;833427;71;33181;-75
2022/01/23 07:16:08;;;;;;;6.55;5.50;;;;;;;3.17;48.07;94823.36;827746;71;29699;-81
2022/01/23 07:31:10;;;;;;;10.90;6.80;;;;;;;5.31;43.75;94826.48;828039;71;29721;-84
2022/01/23 07:46:16;;;;;;;11.30;7.55;;;;;;;3.77;44.38;94829.28;826947;71;33039;-80
2022/01/23 08:01:09;;;;;;;11.22;7.62;;;;;;;2.89;45.25;94841.77;827685;71;30328;-78
2022/01/23 08:16:10;;;;;;;13.20;9.10;;;;;;;1.88;47.08;94858.03;825942;71;29754;-76
2022/01/23 08:31:09;;;;;;;10.23;7.10;;;;;;;1.27;47.92;94850.89;833314;71;29768;-76
2022/01/23 08:46:15;;;;;;;10.23;7.22;;;;;;;1.02;48.30;94852.33;823528;71;33250;-77
2022/01/23 09:01:13;;;;;;;10.63;7.20;;;;;;;0.89;48.64;94836.47;828748;71;31368;-77
2022/01/23 09:16:09;;;;;;;8.50;6.40;;;;;;;0.77;48.73;94843.68;833282;71;30792;-78
2022/01/23 09:31:10;;;;;;;7.83;5.90;;;;;;;0.56;49.58;94835.86;818181;71;29971;-79
2022/01/23 09:46:09;;;;;;;11.40;7.65;;;;;;;0.50;49.99;94830.27;827793;71;28347;-78
2022/01/23 10:01:10;;;;;;;8.35;6.00;;;;;;;0.30;50.15;94810.34;832828;71;27996;-79
2022/01/23 11:01:16;;;;;;;8.75;6.12;;;;;;;0.97;66.51;94735.42;835279;71;31522;-77
2022/01/23 11:31:18;;;;;;;6.72;5.50;;;;;;;1.09;48.42;94706.52;826867;71;32702;-77
2022/01/23 12:01:20;;;;;;;7.85;4.90;;;;;;;1.17;47.89;94685.52;827851;71;30200;-80
2022/01/23 12:16:32;;;;;;;5.65;4.55;;;;;;;0.86;48.56;94678.08;833436;71;30361;-82
2022/01/23 14:46:16;;;;;;;8.53;5.97;;;;;;;-0.52;53.19;94738.37;820492;71;32812;-78
2022/01/23 15:01:12;;;;;;;7.25;6.08;;;;;;;-0.74;54.31;94740.53;833367;71;28566;-77
2022/01/23 15:16:12;;;;;;;9.48;6.30;;;;;;;-0.90;54.94;94757.28;818701;71;30339;-78
2022/01/23 15:31:41;;;;;;;9.23;6.85;;;;;;;0.12;61.13;94776.30;808011;72;32773;-86
2022/01/23 15:46:25;;;;;;;8.33;6.20;;;;;;;-1.00;57.35;94796.38;795195;74;32830;-85
2022/01/23 16:01:16;;;;;;;8.78;6.20;;;;;;;-1.47;58.91;94795.83;792304;73;32799;-85
2022/01/23 16:16:11;;;;;;;8.58;6.30;;;;;;;-1.71;59.77;94814.02;830303;71;30235;-86
2022/01/23 16:31:21;;;;;;;11.90;8.03;;;;;;;-1.82;60.04;94825.23;829213;70;32714;-84
2022/01/23 16:46:16;;;;;;;13.80;8.00;;;;;;;-1.87;60.09;94831.96;796045;74;32941;-83
2022/01/23 17:01:10;;;;;;;11.60;8.48;;;;;;;-1.91;60.66;94833.36;818228;71;30348;-83
2022/01/23 17:16:19;;;;;;;11.22;7.55;;;;;;;-2.06;61.28;94847.23;835528;71;32706;-86
2022/01/23 17:31:14;;;;;;;10.40;7.78;;;;;;;-2.13;63.74;94841.80;827013;71;31954;-84
2022/01/23 17:46:45;;;;;;;12.63;9.05;;;;;;;-2.50;66.04;94797.25;834806;71;32757;-86
2022/01/23 18:01:15;;;;;;;10.95;8.20;;;;;;;-2.23;66.68;94848.14;833738;71;33210;-87
2022/01/23 18:16:10;;;;;;;11.75;9.53;;;;;;;-2.27;66.86;94851.28;812570;71;29834;-84
2022/01/23 18:31:09;;;;;;;12.75;8.85;;;;;;;-2.37;67.67;94852.99;827630;71;29746;-83
2022/01/23 18:46:15;;;;;;;12.07;8.98;;;;;;;-2.39;67.59;94851.59;810244;71;31475;-83
2022/01/23 19:01:18;;;;;;;15.35;10.82;;;;;;;-2.45;68.78;94864.25;821881;71;30214;-84
2022/01/23 19:16:15;;;;;;;11.50;8.80;;;;;;;-2.44;68.38;94870.17;834140;71;32721;-85
2022/01/23 19:31:10;;;;;;;14.80;10.20;;;;;;;-2.44;68.64;94881.23;784882;74;30519;-86
2022/01/23 19:46:25;;;;;;;13.68;9.30;;;;;;;-2.46;69.70;94885.77;833830;71;33101;-87
2022/01/23 20:01:10;;;;;;;17.02;10.63;;;;;;;-2.66;70.09;94847.22;829173;71;30249;-85
2022/01/23 20:16:16;;;;;;;15.78;10.40;;;;;;;-2.39;70.09;94890.12;830341;70;31506;-85
2022/01/23 20:31:14;;;;;;;14.43;10.00;;;;;;;-2.46;69.96;94893.98;828146;71;31734;-86
2022/01/23 20:46:13;;;;;;;16.05;10.32;;;;;;;-2.47;70.78;94888.06;828672;71;32861;-86
2022/01/23 21:01:15;;;;;;;13.50;10.38;;;;;;;-2.45;70.82;94905.35;795644;72;30735;-85
2022/01/23 21:46:16;;;;;;;15.40;10.08;;;;;;;-2.38;71.73;94913.05;834146;71;32803;-84
2022/01/23 22:01:09;;;;;;;13.90;10.15;;;;;;;-2.41;71.56;94912.18;828341;71;29769;-82
2022/01/23 22:02:13;;;;;;;17.77;10.30;;;;;;;-2.45;71.75;94922.55;808500;73;26353;-83
2022/01/23 22:16:11;;;;;;;14.55;8.50;;;;;;;-2.35;71.15;94920.39;828456;71;30568;-83
2022/01/23 22:31:16;;;;;;;16.12;9.98;;;;;;;-2.38;70.26;94925.13;827902;71;33418;-83
2022/01/23 22:46:27;;;;;;;14.13;9.10;;;;;;;-2.43;70.59;94922.64;833703;71;32682;-81
2022/01/23 23:01:09;;;;;;;14.13;8.75;;;;;;;-2.43;70.76;94927.00;828006;71;29719;-87
2022/01/23 23:16:32;;;;;;;14.80;9.15;;;;;;;-2.43;70.84;94938.06;834581;71;32745;-85
2022/01/23 23:31:16;;;;;;;14.60;9.48;;;;;;;-2.42;71.34;94936.27;833976;71;30884;-83
2022/01/23 23:46:13;;;;;;;12.25;8.80;;;;;;;-2.46;71.04;94942.29;827948;71;28990;-83
